Latest Coastal Weather Observations for Hindmarsh Island

IDS60701

Issued at 10:41 am CST Thursday 25 May 2017 (issued every 10 minutes, with the page automatically refreshed every 10 minutes)

About coastal observations | Map of coastal stations | Coastal observations for SA | Marine services | Other Formats
Station Details ID: 023894 Name: HINDMARSH ISLAND AWS Lat: -35.52 Lon: 138.82 Height: 11.0 m
Data from the previous 72 hours. | See also: Recent months at Hindmarsh Island
Date/Time
CST
Temp
°C
Wind Pressure Rain since
9am
mm
Weather Cloud Vis
km
Sea
Height
m
Swell
Dir  Spd
kts
Gust
kts
hPa Trend Height
m
Period
s
Dir
25/10:30am 18.2 WNW 15 22 1020.9 - 0.0 - - - - - - -
25/10:00am 17.7 NW 12 18 1021.0 - 0.0 - - - - - - -
25/09:30am 17.3 NNW 9 13 1021.0 - 0.0 - - - - - - -
25/09:00am 16.0 NNW 10 14 1021.0 - 0.0 - - - - - - -
25/08:30am 15.0 NNW 9 13 1020.8 - 0.0 - - - - - - -
25/08:00am 13.8 N 9 11 1020.7 - 0.0 - - - - - - -
25/07:30am 12.6 N 6 8 1020.7 - 0.0 - - - - - - -
25/07:00am 12.7 N 7 9 1020.5 - 0.0 - - - - - - -
25/06:30am 13.1 N 6 7 1020.6 - 0.0 - - - - - - -
25/06:00am 13.4 N 4 7 1020.4 - 0.0 - - - - - - -
25/05:30am 14.2 N 7 10 1020.2 - 0.0 - - - - - - -
25/05:00am 13.9 NNW 8 10 1020.0 - 0.0 - - - - - - -
25/04:30am 14.1 NNW 9 11 1020.0 - 0.0 - - - - - - -
25/04:00am 14.3 NNW 7 8 1020.0 - 0.0 - - - - - - -
25/03:30am 14.6 NW 9 13 1020.0 - 0.0 - - - - - - -
25/03:00am 13.8 NNW 6 8 1020.0 - 0.0 - - - - - - -
25/02:30am 13.9 N 9 11 1019.8 - 0.0 - - - - - - -
25/02:00am 13.5 N 8 9 1019.7 - 0.0 - - - - - - -
25/01:30am 14.1 N 7 8 1020.1 - 0.0 - - - - - - -
25/01:00am 13.7 N 6 7 1020.2 - 0.0 - - - - - - -
25/12:30am 13.7 N 5 7 1020.5 - 0.0 - - - - - - -
25/12:00am 13.4 N 6 7 1020.7 - 0.0 - - - - - - -
 
Date/Time
CST
Temp
°C
Wind Pressure Rain since
9am
mm
Weather Cloud Vis
km
Sea
Height
m
Swell
Dir  Spd
kts
Gust
kts
hPa Trend Height
m
Period
s
Dir
24/11:30pm 13.4 NNE 7 10 1020.7 - 0.0 - - - - - - -
24/11:00pm 13.5 NNW 5 6 1020.9 - 0.0 - - - - - - -
24/10:30pm 13.2 NW 4 5 1021.0 - 0.0 - - - - - - -
24/10:00pm 12.8 NW 4 5 1021.0 - 0.0 - - - - - - -
24/09:30pm 12.9 NW 5 6 1021.1 - 0.0 - - - - - - -
24/09:00pm 13.2 NW 4 5 1021.1 - 0.0 - - - - - - -
24/08:30pm 13.6 NNW 6 9 1021.3 - 0.0 - - - - - - -
24/08:00pm 13.5 NW 6 7 1021.3 - 0.0 - - - - - - -
24/07:30pm 14.4 NW 7 8 1021.2 - 0.0 - - - - - - -
24/07:00pm 13.9 NW 8 10 1021.2 - 0.0 - - - - - - -
24/06:30pm 14.1 NW 6 7 1021.1 - 0.0 - - - - - - -
24/06:00pm 14.6 NW 6 7 1020.8 - 0.0 - - - - - - -
24/05:30pm 15.4 NW 8 10 1020.7 - 0.0 - - - - - - -
24/05:00pm 16.3 WNW 8 11 1020.4 - 0.0 - - - - - - -
24/04:30pm 17.2 WSW 7 11 1020.3 - 0.0 - - - - - - -
24/04:00pm 17.5 WSW 10 15 1020.1 - 0.0 - - - - - - -
24/03:30pm 18.0 W 13 17 1020.0 - 0.0 - - - - - - -
24/03:00pm 18.1 W 17 22 1019.9 - 0.0 - - - - - - -
24/02:30pm 17.5 W 11 16 1020.0 - 0.0 - - - - - - -
24/02:00pm 18.0 W 13 18 1019.8 - 0.0 - - - - - - -
24/01:30pm 18.1 W 13 17 1019.7 - 0.0 - - - - - - -
24/01:00pm 18.4 W 11 19 1019.7 - 0.0 - - - - - - -
24/12:30pm 17.1 WSW 10 14 1019.9 - 0.0 - - - - - - -
24/12:00pm 17.2 WSW 10 13 1020.3 - 0.0 - - - - - - -
24/11:30am 17.2 WSW 7 11 1020.5 - 0.0 - - - - - - -
24/11:00am 17.1 WSW 9 14 1020.7 - 0.0 - - - - - - -
24/10:30am 17.1 W 11 14 1020.6 - 0.0 - - - - - - -
24/10:00am 16.9 W 9 13 1020.4 - 0.0 - - - - - - -
24/09:30am 16.2 W 11 15 1020.2 - 0.0 - - - - - - -
24/09:00am 15.7 W 11 16 1019.9 - 0.2 - - - - - - -
24/08:30am 14.7 WNW 8 11 1019.6 - 0.2 - - - - - - -
24/08:00am 13.9 WNW 8 11 1019.2 - 0.2 - - - - - - -
24/07:30am 14.0 W 11 15 1018.9 - 0.2 - - - - - - -
24/07:00am 13.5 W 10 12 1018.6 - 0.2 - - - - - - -
24/06:30am 13.9 W 9 11 1018.2 - 0.2 - - - - - - -
24/06:00am 14.3 W 10 12 1017.9 - 0.2 - - - - - - -
24/05:30am 14.4 W 8 10 1017.7 - 0.2 - - - - - - -
24/05:00am 14.5 W 9 11 1017.4 - 0.2 - - - - - - -
24/04:30am 14.3 W 8 11 1017.1 - 0.2 - - - - - - -
24/04:00am 14.5 W 11 14 1016.8 - 0.2 - - - - - - -
24/03:30am 14.5 W 10 13 1016.4 - 0.2 - - - - - - -
24/03:00am 14.9 W 13 19 1016.3 - 0.2 - - - - - - -
24/02:30am 14.8 W 15 20 1015.9 - 0.2 - - - - - - -
24/02:00am 14.3 WNW 11 13 1015.7 - 0.2 - - - - - - -
24/01:30am 14.4 W 11 15 1015.6 - 0.2 - - - - - - -
24/01:00am 14.7 WNW 11 14 1015.7 - 0.2 - - - - - - -
24/12:30am 15.1 W 9 13 1015.9 - 0.2 - - - - - - -
24/12:00am 15.1 WNW 11 15 1016.0 - 0.2 - - - - - - -
 
Date/Time
CST
Temp
°C
Wind Pressure Rain since
9am
mm
Weather Cloud Vis
km
Sea
Height
m
Swell
Dir  Spd
kts
Gust
kts
hPa Trend Height
m
Period
s
Dir
23/11:30pm 15.2 WNW 13 20 1015.8 - 0.2 - - - - - - -
23/11:00pm 15.4 WNW 15 20 1015.8 - 0.2 - - - - - - -
23/10:30pm 15.4 WNW 13 20 1015.9 - 0.2 - - - - - - -
23/10:00pm 15.8 WNW 13 17 1015.7 - 0.2 - - - - - - -
23/09:30pm 16.0 WNW 16 23 1015.6 - 0.2 - - - - - - -
23/09:00pm 15.6 NW 13 20 1015.5 - 0.2 - - - - - - -
23/08:30pm 15.3 WNW 12 16 1015.4 - 0.2 - - - - - - -
23/08:00pm 15.2 WNW 13 18 1015.6 - 0.2 - - - - - - -
23/07:30pm 15.4 WNW 14 19 1015.1 - 0.2 - - - - - - -
23/07:00pm 15.3 WNW 12 18 1015.0 - 0.2 - - - - - - -
23/06:30pm 14.9 WNW 11 14 1014.9 - 0.2 - - - - - - -
23/06:00pm 14.6 WNW 6 7 1014.9 - 0.0 - - - - - - -
23/05:30pm 15.9 NW 13 20 1014.5 - 0.0 - - - - - - -
23/05:00pm 16.1 NW 13 19 1014.1 - 0.0 - - - - - - -
23/04:30pm 16.5 WNW 15 21 1014.1 - 0.0 - - - - - - -
23/04:00pm 16.9 NW 14 19 1013.9 - 0.0 - - - - - - -
23/03:30pm 17.4 NW 16 21 1013.8 - 0.0 - - - - - - -
23/03:00pm 17.9 NW 15 19 1013.8 - 0.0 - - - - - - -
23/02:30pm 17.4 NW 15 22 1014.0 - 0.0 - - - - - - -
23/02:00pm 17.5 NW 17 21 1014.2 - 0.0 - - - - - - -
23/01:30pm 17.9 NW 15 21 1014.3 - 0.0 - - - - - - -
23/01:00pm 17.8 NW 16 22 1014.7 - 0.0 - - - - - - -
23/12:30pm 17.7 NW 16 22 1015.1 - 0.0 - - - - - - -
23/12:00pm 17.9 NNW 14 21 1015.3 - 0.0 - - - - - - -
23/11:30am 18.2 NNW 12 17 1015.9 - 0.0 - - - - - - -
23/11:00am 17.6 NNW 13 19 1016.4 - 0.0 - - - - - - -
23/10:30am 17.3 NW 17 24 1016.5 - 0.0 - - - - - - -
23/10:28am 17.0 NW 15 24 1016.4 - 0.0 - - - - - - -
23/10:00am 16.9 NNW 9 12 1016.8 - 0.0 - - - - - - -
23/09:30am 15.9 NW 6 10 1016.9 - 0.0 - - - - - - -
23/09:00am 14.8 NNW 6 7 1016.8 - 0.6 - - - - - - -
23/08:30am 13.0 NNW 6 8 1016.7 - 0.6 - - - - - - -
23/08:00am 12.4 NNW 7 8 1016.3 - 0.6 - - - - - - -
23/07:30am 12.0 N 7 8 1016.4 - 0.6 - - - - - - -
23/07:00am 12.0 N 6 7 1016.4 - 0.6 - - - - - - -
23/06:30am 12.7 NNW 5 6 1016.5 - 0.6 - - - - - - -
23/06:00am 11.9 N 6 7 1016.1 - 0.6 - - - - - - -
23/05:30am 12.4 NNW 6 7 1016.0 - 0.6 - - - - - - -
23/05:00am 12.2 NNW 6 7 1015.9 - 0.6 - - - - - - -
23/04:30am 12.5 N 6 6 1015.5 - 0.6 - - - - - - -
23/04:00am 13.0 NNW 4 5 1015.6 - 0.6 - - - - - - -
23/03:30am 12.9 NNW 4 5 1015.7 - 0.6 - - - - - - -
23/03:00am 12.9 N 5 6 1015.7 - 0.6 - - - - - - -
23/02:30am 13.5 WNW 3 4 1015.7 - 0.6 - - - - - - -
23/02:00am 14.1 WNW 4 7 1015.6 - 0.6 - - - - - - -
23/01:30am 14.6 NW 5 7 1015.5 - 0.6 - - - - - - -
23/01:00am 15.0 WNW 6 7 1015.7 - 0.6 - - - - - - -
23/12:30am 14.7 NW 5 7 1015.8 - 0.6 - - - - - - -
23/12:00am 15.0 NW 5 8 1015.6 - 0.6 - - - - - - -
 
Date/Time
CST
Temp
°C
Wind Pressure Rain since
9am
mm
Weather Cloud Vis
km
Sea
Height
m
Swell
Dir  Spd
kts
Gust
kts
hPa Trend Height
m
Period
s
Dir
22/11:30pm 15.1 NNW 8 11 1015.5 - 0.6 - - - - - - -
22/11:00pm 15.4 NW 10 13 1015.5 - 0.6 - - - - - - -
22/10:30pm 15.5 N 7 11 1015.6 - 0.6 - - - - - - -
22/10:00pm 15.3 NW 6 9 1015.3 - 0.6 - - - - - - -
22/09:30pm 15.3 NNW 8 10 1014.9 - 0.6 - - - - - - -
22/09:00pm 15.9 NNW 9 12 1014.6 - 0.6 Recent precip. - - - - - -
22/08:30pm 16.3 N 13 22 1014.0 - 0.6 - - - - - - -
22/08:00pm 16.9 NW 12 19 1014.7 - 0.2 - - - - - - -
22/07:30pm 18.7 NW 13 19 1013.9 - 0.0 - - - - - - -
22/07:00pm 18.9 NNW 13 18 1013.7 - 0.0 - - - - - - -
22/06:30pm 18.7 NNW 13 19 1012.9 - 0.0 - - - - - - -
22/06:00pm 19.1 NNW 13 21 1012.7 - 0.0 - - - - - - -
22/05:30pm 18.9 N 7 13 1012.6 - 0.0 - - - - - - -
22/05:00pm 19.1 N 6 9 1012.4 - 0.0 - - - - - - -
22/04:30pm 20.3 NNW 10 15 1012.1 - 0.0 - - - - - - -
22/04:00pm 22.0 NNW 13 25 1011.3 - 0.0 - - - - - - -
22/03:30pm 22.3 NNW 11 17 1010.8 - 0.0 - - - - - - -
22/03:00pm 22.3 N 15 22 1010.3 - 0.0 - - - - - - -
22/02:30pm 23.5 N 18 29 1010.1 - 0.0 - - - - - - -
22/02:05pm 23.7 N 19 29 1009.9 - 0.0 - - - - - - -
22/02:00pm 23.6 N 21 29 1009.8 - 0.0 - - - - - - -
22/01:50pm 21.7 N 19 30 1009.9 - 0.0 - - - - - - -
22/01:30pm 21.8 N 19 27 1011.1 - 0.0 - - - - - - -
22/01:23pm 22.0 N 15 26 1011.4 - 0.0 - - - - - - -
22/01:00pm 20.5 N 13 22 1012.4 - 0.0 - - - - - - -
22/12:30pm 19.7 N 11 17 1012.5 - 0.0 - - - - - - -
22/12:20pm 20.0 NNW 15 25 1011.9 - 0.0 - - - - - - -
22/12:00pm 20.0 NNW 13 21 1012.6 - 0.0 - - - - - - -
22/11:46am 20.3 N 15 25 1013.0 - 0.0 - - - - - - -
22/11:30am 18.2 N 10 14 1013.8 - 0.0 - - - - - - -
22/11:00am 19.4 NNE 14 19 1013.7 - 0.0 - - - - - - -

Other Formats:

Comma delimited format used in spreadsheet applications
http://www.bom.gov.au/fwo/IDS60701/IDS60701.94677.axf

JavaScript Object Notation format (JSON) in row-major order
http://www.bom.gov.au/fwo/IDS60701/IDS60701.94677.json